Terminal Aerodrome Forecast
Issued by NWS

Home | Current Version | Previous Version | Text Only | Print | Product List | Glossary On
Versions: 1 2 3 4 5 6 7 8 9 10 11 12 13 14 15 16 17
000
FTUS43 KFGF 240520
TAFTVF
TAF
KTVF 240520Z 2406/2506 34016KT P6SM BKN025
     FM240700 34014KT P6SM SCT030
     FM241200 34016KT P6SM SCT030
     FM242300 29012KT P6SM SCT200
     FM250200 25006KT P6SM BKN080=

USA.gov is the U.S. government's official web portal to all federal, state and local government web resources and services.